sensor_id;sensor_type;location;lat;lon;timestamp;temperature;humidity
7216;DHT22;3649;48.798;9.798;2024-03-06T00:00:12;10.90;99.90
7216;DHT22;3649;48.798;9.798;2024-03-06T00:02:40;10.90;99.90
7216;DHT22;3649;48.798;9.798;2024-03-06T00:05:07;10.90;99.90
7216;DHT22;3649;48.798;9.798;2024-03-06T00:07:35;10.80;99.90
7216;DHT22;3649;48.798;9.798;2024-03-06T00:10:02;10.90;99.90
7216;DHT22;3649;48.798;9.798;2024-03-06T00:12:31;10.80;99.90
7216;DHT22;3649;48.798;9.798;2024-03-06T00:14:58;12.20;99.90
7216;DHT22;3649;48.798;9.798;2024-03-06T00:17:25;10.70;99.90
7216;DHT22;3649;48.798;9.798;2024-03-06T00:19:51;10.70;99.90
7216;DHT22;3649;48.798;9.798;2024-03-06T00:22:18;10.70;99.90
7216;DHT22;3649;48.798;9.798;2024-03-06T00:24:49;10.80;99.90
7216;DHT22;3649;48.798;9.798;2024-03-06T00:27:16;10.80;99.90
7216;DHT22;3649;48.798;9.798;2024-03-06T00:29:43;10.80;99.90
7216;DHT22;3649;48.798;9.798;2024-03-06T00:32:10;10.90;99.90
7216;DHT22;3649;48.798;9.798;2024-03-06T00:34:37;10.80;99.90
7216;DHT22;3649;48.798;9.798;2024-03-06T00:37:04;10.90;99.90
7216;DHT22;3649;48.798;9.798;2024-03-06T00:39:31;10.80;99.90
7216;DHT22;3649;48.798;9.798;2024-03-06T00:41:58;10.80;99.90
7216;DHT22;3649;48.798;9.798;2024-03-06T00:44:25;10.80;99.90
7216;DHT22;3649;48.798;9.798;2024-03-06T00:46:52;10.90;99.90
7216;DHT22;3649;48.798;9.798;2024-03-06T00:49:19;10.90;99.90
7216;DHT22;3649;48.798;9.798;2024-03-06T00:51:46;11.00;99.90
7216;DHT22;3649;48.798;9.798;2024-03-06T00:54:15;10.90;99.90
7216;DHT22;3649;48.798;9.798;2024-03-06T00:56:43;10.90;99.90
7216;DHT22;3649;48.798;9.798;2024-03-06T00:59:10;11.00;99.90
7216;DHT22;3649;48.798;9.798;2024-03-06T01:01:37;11.00;99.90
7216;DHT22;3649;48.798;9.798;2024-03-06T01:04:04;10.90;99.90
7216;DHT22;3649;48.798;9.798;2024-03-06T01:06:31;10.90;99.90
7216;DHT22;3649;48.798;9.798;2024-03-06T01:08:59;10.90;99.90
7216;DHT22;3649;48.798;9.798;2024-03-06T01:11:26;10.90;99.90
7216;DHT22;3649;48.798;9.798;2024-03-06T01:13:55;11.60;99.90
7216;DHT22;3649;48.798;9.798;2024-03-06T01:16:22;11.00;99.90
7216;DHT22;3649;48.798;9.798;2024-03-06T01:18:49;11.00;99.90
7216;DHT22;3649;48.798;9.798;2024-03-06T01:21:16;11.00;99.90
7216;DHT22;3649;48.798;9.798;2024-03-06T01:23:42;10.90;99.90
7216;DHT22;3649;48.798;9.798;2024-03-06T01:26:10;10.70;99.90
7216;DHT22;3649;48.798;9.798;2024-03-06T01:28:38;10.80;99.90
7216;DHT22;3649;48.798;9.798;2024-03-06T01:31:05;10.70;99.90
7216;DHT22;3649;48.798;9.798;2024-03-06T01:33:33;10.80;99.90
7216;DHT22;3649;48.798;9.798;2024-03-06T01:36:00;10.90;99.90
7216;DHT22;3649;48.798;9.798;2024-03-06T01:38:27;11.90;99.90
7216;DHT22;3649;48.798;9.798;2024-03-06T01:40:53;10.90;99.90
7216;DHT22;3649;48.798;9.798;2024-03-06T01:43:25;10.90;99.90
7216;DHT22;3649;48.798;9.798;2024-03-06T01:45:52;10.80;99.90
7216;DHT22;3649;48.798;9.798;2024-03-06T01:48:25;11.00;99.90
7216;DHT22;3649;48.798;9.798;2024-03-06T01:50:56;10.90;99.90
7216;DHT22;3649;48.798;9.798;2024-03-06T01:53:24;10.80;99.90
7216;DHT22;3649;48.798;9.798;2024-03-06T01:55:51;10.80;99.90
7216;DHT22;3649;48.798;9.798;2024-03-06T01:58:19;10.80;99.90
7216;DHT22;3649;48.798;9.798;2024-03-06T02:00:49;10.80;99.90
7216;DHT22;3649;48.798;9.798;2024-03-06T02:03:18;11.50;99.90
7216;DHT22;3649;48.798;9.798;2024-03-06T02:05:48;10.80;99.90
7216;DHT22;3649;48.798;9.798;2024-03-06T02:08:15;12.20;99.90
7216;DHT22;3649;48.798;9.798;2024-03-06T02:10:44;10.80;99.90
7216;DHT22;3649;48.798;9.798;2024-03-06T02:13:12;10.90;99.90
7216;DHT22;3649;48.798;9.798;2024-03-06T02:15:40;10.90;99.90
7216;DHT22;3649;48.798;9.798;2024-03-06T02:18:07;10.90;99.90
7216;DHT22;3649;48.798;9.798;2024-03-06T02:20:39;10.80;99.90
7216;DHT22;3649;48.798;9.798;2024-03-06T02:23:07;10.80;99.90
7216;DHT22;3649;48.798;9.798;2024-03-06T02:25:35;10.90;99.90
7216;DHT22;3649;48.798;9.798;2024-03-06T02:28:02;10.80;99.90
7216;DHT22;3649;48.798;9.798;2024-03-06T02:30:30;10.80;99.90
7216;DHT22;3649;48.798;9.798;2024-03-06T02:33:03;10.80;99.90
7216;DHT22;3649;48.798;9.798;2024-03-06T02:35:33;10.80;99.90
7216;DHT22;3649;48.798;9.798;2024-03-06T02:38:04;10.90;99.90
7216;DHT22;3649;48.798;9.798;2024-03-06T02:40:34;10.60;99.90
7216;DHT22;3649;48.798;9.798;2024-03-06T02:43:01;11.00;99.90
7216;DHT22;3649;48.798;9.798;2024-03-06T02:45:28;10.70;99.90
7216;DHT22;3649;48.798;9.798;2024-03-06T02:47:55;11.00;99.90
7216;DHT22;3649;48.798;9.798;2024-03-06T02:50:22;10.80;99.90
7216;DHT22;3649;48.798;9.798;2024-03-06T02:52:50;10.70;99.90
7216;DHT22;3649;48.798;9.798;2024-03-06T02:55:18;10.70;99.90
7216;DHT22;3649;48.798;9.798;2024-03-06T02:57:46;11.20;99.90
7216;DHT22;3649;48.798;9.798;2024-03-06T03:00:13;10.70;99.90
7216;DHT22;3649;48.798;9.798;2024-03-06T03:02:40;10.70;99.90
7216;DHT22;3649;48.798;9.798;2024-03-06T03:05:08;10.60;99.90
7216;DHT22;3649;48.798;9.798;2024-03-06T03:07:36;10.70;99.90
7216;DHT22;3649;48.798;9.798;2024-03-06T03:10:03;11.60;99.90
7216;DHT22;3649;48.798;9.798;2024-03-06T03:12:31;10.70;99.90
7216;DHT22;3649;48.798;9.798;2024-03-06T03:14:58;10.80;99.90
7216;DHT22;3649;48.798;9.798;2024-03-06T03:17:25;10.70;99.90
7216;DHT22;3649;48.798;9.798;2024-03-06T03:19:52;11.20;99.90
7216;DHT22;3649;48.798;9.798;2024-03-06T03:22:19;10.70;99.90
7216;DHT22;3649;48.798;9.798;2024-03-06T03:24:46;10.80;99.90
7216;DHT22;3649;48.798;9.798;2024-03-06T03:27:14;11.00;99.90
7216;DHT22;3649;48.798;9.798;2024-03-06T03:29:40;10.80;99.90
7216;DHT22;3649;48.798;9.798;2024-03-06T03:32:07;10.80;99.90
7216;DHT22;3649;48.798;9.798;2024-03-06T03:34:35;10.80;99.90
7216;DHT22;3649;48.798;9.798;2024-03-06T03:37:02;10.70;99.90
7216;DHT22;3649;48.798;9.798;2024-03-06T03:39:29;11.60;99.90
7216;DHT22;3649;48.798;9.798;2024-03-06T03:41:56;11.90;99.90
7216;DHT22;3649;48.798;9.798;2024-03-06T03:44:23;10.70;99.90
7216;DHT22;3649;48.798;9.798;2024-03-06T03:46:50;10.80;99.90
7216;DHT22;3649;48.798;9.798;2024-03-06T03:49:17;10.80;99.90
7216;DHT22;3649;48.798;9.798;2024-03-06T03:51:45;10.80;99.90
7216;DHT22;3649;48.798;9.798;2024-03-06T03:54:12;10.80;99.90
7216;DHT22;3649;48.798;9.798;2024-03-06T03:56:39;10.70;99.90
7216;DHT22;3649;48.798;9.798;2024-03-06T03:59:06;10.60;99.90
7216;DHT22;3649;48.798;9.798;2024-03-06T04:01:34;10.70;99.90
7216;DHT22;3649;48.798;9.798;2024-03-06T04:04:01;10.60;99.90
7216;DHT22;3649;48.798;9.798;2024-03-06T04:06:28;10.60;99.90
7216;DHT22;3649;48.798;9.798;2024-03-06T04:08:55;10.70;99.90
7216;DHT22;3649;48.798;9.798;2024-03-06T04:11:21;10.80;99.90
7216;DHT22;3649;48.798;9.798;2024-03-06T04:13:49;10.60;99.90
7216;DHT22;3649;48.798;9.798;2024-03-06T04:16:17;10.60;99.90
7216;DHT22;3649;48.798;9.798;2024-03-06T04:18:46;10.60;99.90
7216;DHT22;3649;48.798;9.798;2024-03-06T04:21:12;11.30;99.90
7216;DHT22;3649;48.798;9.798;2024-03-06T04:23:43;10.50;99.90
7216;DHT22;3649;48.798;9.798;2024-03-06T04:26:11;10.50;99.90
7216;DHT22;3649;48.798;9.798;2024-03-06T04:28:38;10.60;99.90
7216;DHT22;3649;48.798;9.798;2024-03-06T04:31:05;10.60;99.90
7216;DHT22;3649;48.798;9.798;2024-03-06T04:33:32;10.60;99.90
7216;DHT22;3649;48.798;9.798;2024-03-06T04:36:03;10.60;99.90
7216;DHT22;3649;48.798;9.798;2024-03-06T04:38:32;10.60;99.90
7216;DHT22;3649;48.798;9.798;2024-03-06T04:40:59;10.50;99.90
7216;DHT22;3649;48.798;9.798;2024-03-06T04:43:26;10.50;99.90
7216;DHT22;3649;48.798;9.798;2024-03-06T04:45:53;10.30;99.90
7216;DHT22;3649;48.798;9.798;2024-03-06T04:48:20;10.30;99.90
7216;DHT22;3649;48.798;9.798;2024-03-06T04:50:47;10.30;99.90
7216;DHT22;3649;48.798;9.798;2024-03-06T04:53:14;10.30;99.90
7216;DHT22;3649;48.798;9.798;2024-03-06T04:55:41;10.20;99.90
7216;DHT22;3649;48.798;9.798;2024-03-06T04:58:08;10.20;99.90
7216;DHT22;3649;48.798;9.798;2024-03-06T05:00:35;10.10;99.90
7216;DHT22;3649;48.798;9.798;2024-03-06T05:03:02;10.20;99.90
7216;DHT22;3649;48.798;9.798;2024-03-06T05:05:46;10.30;99.90
7216;DHT22;3649;48.798;9.798;2024-03-06T05:08:30;10.30;99.90
7216;DHT22;3649;48.798;9.798;2024-03-06T05:11:15;10.30;99.90
7216;DHT22;3649;48.798;9.798;2024-03-06T05:14:00;10.20;99.90
7216;DHT22;3649;48.798;9.798;2024-03-06T05:16:44;10.10;99.90
7216;DHT22;3649;48.798;9.798;2024-03-06T05:19:28;10.10;99.90
7216;DHT22;3649;48.798;9.798;2024-03-06T05:22:16;10.20;99.90
7216;DHT22;3649;48.798;9.798;2024-03-06T05:25:00;10.20;99.90
7216;DHT22;3649;48.798;9.798;2024-03-06T05:27:44;10.10;99.90
7216;DHT22;3649;48.798;9.798;2024-03-06T05:30:28;10.00;99.90
7216;DHT22;3649;48.798;9.798;2024-03-06T05:33:12;10.10;99.90
7216;DHT22;3649;48.798;9.798;2024-03-06T05:35:56;11.20;99.90
7216;DHT22;3649;48.798;9.798;2024-03-06T05:38:41;10.10;99.90
7216;DHT22;3649;48.798;9.798;2024-03-06T05:41:25;10.10;99.90
7216;DHT22;3649;48.798;9.798;2024-03-06T05:44:10;10.30;99.90
7216;DHT22;3649;48.798;9.798;2024-03-06T05:46:54;10.20;99.90
7216;DHT22;3649;48.798;9.798;2024-03-06T05:49:38;10.20;99.90
7216;DHT22;3649;48.798;9.798;2024-03-06T05:52:22;10.10;99.90
7216;DHT22;3649;48.798;9.798;2024-03-06T05:55:07;10.10;99.90
7216;DHT22;3649;48.798;9.798;2024-03-06T05:57:51;10.10;99.90
7216;DHT22;3649;48.798;9.798;2024-03-06T06:00:33;10.10;99.90
7216;DHT22;3649;48.798;9.798;2024-03-06T06:03:00;10.30;99.90
7216;DHT22;3649;48.798;9.798;2024-03-06T06:05:27;10.20;99.90
7216;DHT22;3649;48.798;9.798;2024-03-06T06:07:54;11.50;99.90
7216;DHT22;3649;48.798;9.798;2024-03-06T06:10:21;10.20;99.90
7216;DHT22;3649;48.798;9.798;2024-03-06T06:12:49;11.20;99.90
7216;DHT22;3649;48.798;9.798;2024-03-06T06:15:16;10.20;99.90
7216;DHT22;3649;48.798;9.798;2024-03-06T06:17:43;10.20;99.90
7216;DHT22;3649;48.798;9.798;2024-03-06T06:20:12;10.30;99.90
7216;DHT22;3649;48.798;9.798;2024-03-06T06:22:44;10.30;99.90
7216;DHT22;3649;48.798;9.798;2024-03-06T06:25:11;10.20;99.90
7216;DHT22;3649;48.798;9.798;2024-03-06T06:27:39;10.20;99.90
7216;DHT22;3649;48.798;9.798;2024-03-06T06:30:07;10.20;99.90
7216;DHT22;3649;48.798;9.798;2024-03-06T06:32:39;10.10;99.90
7216;DHT22;3649;48.798;9.798;2024-03-06T06:35:07;10.20;99.90
7216;DHT22;3649;48.798;9.798;2024-03-06T06:37:36;10.20;99.90
7216;DHT22;3649;48.798;9.798;2024-03-06T06:40:03;11.30;99.90
7216;DHT22;3649;48.798;9.798;2024-03-06T06:42:34;10.30;99.90
7216;DHT22;3649;48.798;9.798;2024-03-06T06:45:02;10.40;99.90
7216;DHT22;3649;48.798;9.798;2024-03-06T06:47:30;10.40;99.90
7216;DHT22;3649;48.798;9.798;2024-03-06T06:49:57;11.00;99.90
7216;DHT22;3649;48.798;9.798;2024-03-06T06:52:24;11.40;99.90
7216;DHT22;3649;48.798;9.798;2024-03-06T06:54:54;10.20;99.90
7216;DHT22;3649;48.798;9.798;2024-03-06T06:57:22;12.10;99.90
7216;DHT22;3649;48.798;9.798;2024-03-06T06:59:49;10.50;99.90
7216;DHT22;3649;48.798;9.798;2024-03-06T07:02:16;10.30;99.90
7216;DHT22;3649;48.798;9.798;2024-03-06T07:04:44;10.40;99.90
7216;DHT22;3649;48.798;9.798;2024-03-06T07:07:11;10.30;99.90
7216;DHT22;3649;48.798;9.798;2024-03-06T07:09:37;10.40;99.90
7216;DHT22;3649;48.798;9.798;2024-03-06T07:12:04;10.40;99.90
7216;DHT22;3649;48.798;9.798;2024-03-06T07:14:31;10.40;99.90
7216;DHT22;3649;48.798;9.798;2024-03-06T07:16:59;10.60;99.90
7216;DHT22;3649;48.798;9.798;2024-03-06T07:19:25;11.60;99.90
7216;DHT22;3649;48.798;9.798;2024-03-06T07:21:53;10.40;99.90
7216;DHT22;3649;48.798;9.798;2024-03-06T07:24:20;10.40;99.90
7216;DHT22;3649;48.798;9.798;2024-03-06T07:26:47;10.40;99.90
7216;DHT22;3649;48.798;9.798;2024-03-06T07:29:14;10.30;99.90
7216;DHT22;3649;48.798;9.798;2024-03-06T07:31:43;11.20;99.90
7216;DHT22;3649;48.798;9.798;2024-03-06T07:34:11;10.40;99.90
7216;DHT22;3649;48.798;9.798;2024-03-06T07:36:39;10.40;99.90
7216;DHT22;3649;48.798;9.798;2024-03-06T07:39:05;10.40;99.90
7216;DHT22;3649;48.798;9.798;2024-03-06T07:41:33;10.40;99.90
7216;DHT22;3649;48.798;9.798;2024-03-06T07:44:00;10.40;99.90
7216;DHT22;3649;48.798;9.798;2024-03-06T07:46:27;10.40;99.90
7216;DHT22;3649;48.798;9.798;2024-03-06T07:48:54;10.30;99.90
7216;DHT22;3649;48.798;9.798;2024-03-06T07:51:22;10.30;99.90
7216;DHT22;3649;48.798;9.798;2024-03-06T07:53:49;11.40;99.90
7216;DHT22;3649;48.798;9.798;2024-03-06T07:56:17;10.80;99.90
7216;DHT22;3649;48.798;9.798;2024-03-06T07:58:44;10.30;99.90
7216;DHT22;3649;48.798;9.798;2024-03-06T08:01:12;10.40;99.90
7216;DHT22;3649;48.798;9.798;2024-03-06T08:03:40;10.40;99.90
7216;DHT22;3649;48.798;9.798;2024-03-06T08:06:11;10.30;99.90
7216;DHT22;3649;48.798;9.798;2024-03-06T08:08:40;10.20;99.90
7216;DHT22;3649;48.798;9.798;2024-03-06T08:11:11;11.30;99.90
7216;DHT22;3649;48.798;9.798;2024-03-06T08:13:38;11.90;99.90
7216;DHT22;3649;48.798;9.798;2024-03-06T08:16:06;10.30;99.90
7216;DHT22;3649;48.798;9.798;2024-03-06T08:18:34;10.30;99.90
7216;DHT22;3649;48.798;9.798;2024-03-06T08:21:02;11.10;99.90
7216;DHT22;3649;48.798;9.798;2024-03-06T08:23:30;10.30;99.90
7216;DHT22;3649;48.798;9.798;2024-03-06T08:25:58;10.40;99.90
7216;DHT22;3649;48.798;9.798;2024-03-06T08:28:26;10.30;99.90
7216;DHT22;3649;48.798;9.798;2024-03-06T08:30:53;10.50;99.90
7216;DHT22;3649;48.798;9.798;2024-03-06T08:33:20;10.50;99.90
7216;DHT22;3649;48.798;9.798;2024-03-06T08:35:49;10.30;99.90
7216;DHT22;3649;48.798;9.798;2024-03-06T08:38:16;10.40;99.90
7216;DHT22;3649;48.798;9.798;2024-03-06T08:40:44;10.40;99.90
7216;DHT22;3649;48.798;9.798;2024-03-06T08:43:13;10.30;99.90
7216;DHT22;3649;48.798;9.798;2024-03-06T08:45:42;11.30;99.90
7216;DHT22;3649;48.798;9.798;2024-03-06T08:48:09;10.40;99.90
7216;DHT22;3649;48.798;9.798;2024-03-06T08:50:38;10.40;99.90
7216;DHT22;3649;48.798;9.798;2024-03-06T08:53:05;10.40;99.90
7216;DHT22;3649;48.798;9.798;2024-03-06T08:55:33;10.60;99.90
7216;DHT22;3649;48.798;9.798;2024-03-06T08:58:00;10.70;99.90
7216;DHT22;3649;48.798;9.798;2024-03-06T09:00:28;10.70;99.90
7216;DHT22;3649;48.798;9.798;2024-03-06T09:02:55;10.80;99.90
7216;DHT22;3649;48.798;9.798;2024-03-06T09:05:22;10.80;99.90
7216;DHT22;3649;48.798;9.798;2024-03-06T09:07:49;10.70;99.90
7216;DHT22;3649;48.798;9.798;2024-03-06T09:10:17;10.60;99.90
7216;DHT22;3649;48.798;9.798;2024-03-06T09:12:45;10.60;99.90
7216;DHT22;3649;48.798;9.798;2024-03-06T09:15:14;10.70;99.90
7216;DHT22;3649;48.798;9.798;2024-03-06T09:17:43;10.70;99.90
7216;DHT22;3649;48.798;9.798;2024-03-06T09:20:11;10.70;99.90
7216;DHT22;3649;48.798;9.798;2024-03-06T09:22:40;10.70;99.90
7216;DHT22;3649;48.798;9.798;2024-03-06T09:25:08;10.60;99.90
7216;DHT22;3649;48.798;9.798;2024-03-06T09:27:36;12.20;99.90
7216;DHT22;3649;48.798;9.798;2024-03-06T09:30:03;11.60;99.90
7216;DHT22;3649;48.798;9.798;2024-03-06T09:32:30;10.70;99.90
7216;DHT22;3649;48.798;9.798;2024-03-06T09:34:58;10.70;99.90
7216;DHT22;3649;48.798;9.798;2024-03-06T09:37:26;10.60;99.90
7216;DHT22;3649;48.798;9.798;2024-03-06T09:39:55;10.60;99.90
7216;DHT22;3649;48.798;9.798;2024-03-06T09:42:24;10.70;99.90
7216;DHT22;3649;48.798;9.798;2024-03-06T09:44:51;10.70;99.90
7216;DHT22;3649;48.798;9.798;2024-03-06T09:47:22;10.70;99.90
7216;DHT22;3649;48.798;9.798;2024-03-06T09:49:52;10.70;99.90
7216;DHT22;3649;48.798;9.798;2024-03-06T09:52:23;10.70;99.90
7216;DHT22;3649;48.798;9.798;2024-03-06T09:54:54;10.60;99.90
7216;DHT22;3649;48.798;9.798;2024-03-06T09:57:22;10.60;99.90
7216;DHT22;3649;48.798;9.798;2024-03-06T09:59:49;10.60;99.90
7216;DHT22;3649;48.798;9.798;2024-03-06T10:02:57;10.70;99.90
7216;DHT22;3649;48.798;9.798;2024-03-06T10:05:24;10.80;99.90
7216;DHT22;3649;48.798;9.798;2024-03-06T10:07:51;10.70;99.90
7216;DHT22;3649;48.798;9.798;2024-03-06T10:10:21;10.60;99.90
7216;DHT22;3649;48.798;9.798;2024-03-06T10:12:50;11.60;99.90
7216;DHT22;3649;48.798;9.798;2024-03-06T10:15:17;10.60;99.90
7216;DHT22;3649;48.798;9.798;2024-03-06T10:17:44;10.70;99.90
7216;DHT22;3649;48.798;9.798;2024-03-06T10:20:23;10.80;99.90
7216;DHT22;3649;48.798;9.798;2024-03-06T10:22:52;10.80;99.90
7216;DHT22;3649;48.798;9.798;2024-03-06T10:25:25;10.70;99.90
7216;DHT22;3649;48.798;9.798;2024-03-06T10:28:07;10.70;99.90
7216;DHT22;3649;48.798;9.798;2024-03-06T10:30:35;10.80;99.90
7216;DHT22;3649;48.798;9.798;2024-03-06T10:33:03;10.90;99.90
7216;DHT22;3649;48.798;9.798;2024-03-06T10:35:32;10.80;99.90
7216;DHT22;3649;48.798;9.798;2024-03-06T10:38:01;11.30;99.90
7216;DHT22;3649;48.798;9.798;2024-03-06T10:40:32;10.80;99.90
7216;DHT22;3649;48.798;9.798;2024-03-06T10:43:00;12.10;99.90
7216;DHT22;3649;48.798;9.798;2024-03-06T10:45:49;10.90;99.90
7216;DHT22;3649;48.798;9.798;2024-03-06T10:48:17;10.90;99.90
7216;DHT22;3649;48.798;9.798;2024-03-06T10:50:46;10.90;99.90
7216;DHT22;3649;48.798;9.798;2024-03-06T10:53:15;10.90;99.90
7216;DHT22;3649;48.798;9.798;2024-03-06T10:55:49;12.40;99.90
7216;DHT22;3649;48.798;9.798;2024-03-06T10:58:18;10.90;99.90
7216;DHT22;3649;48.798;9.798;2024-03-06T11:00:46;10.90;99.90
7216;DHT22;3649;48.798;9.798;2024-03-06T11:03:15;10.80;99.90
7216;DHT22;3649;48.798;9.798;2024-03-06T11:05:43;12.10;99.90
7216;DHT22;3649;48.798;9.798;2024-03-06T11:08:14;10.90;99.90
7216;DHT22;3649;48.798;9.798;2024-03-06T11:10:42;11.00;99.90
7216;DHT22;3649;48.798;9.798;2024-03-06T11:15:53;11.00;99.90
7216;DHT22;3649;48.798;9.798;2024-03-06T11:18:41;11.00;99.90
7216;DHT22;3649;48.798;9.798;2024-03-06T11:26:37;11.10;99.90
7216;DHT22;3649;48.798;9.798;2024-03-06T11:29:09;11.20;99.90
7216;DHT22;3649;48.798;9.798;2024-03-06T11:31:36;11.40;99.90
7216;DHT22;3649;48.798;9.798;2024-03-06T11:34:04;11.20;99.90
7216;DHT22;3649;48.798;9.798;2024-03-06T11:36:34;11.30;99.90
7216;DHT22;3649;48.798;9.798;2024-03-06T11:39:08;11.20;99.90
7216;DHT22;3649;48.798;9.798;2024-03-06T11:44:16;11.30;99.90
7216;DHT22;3649;48.798;9.798;2024-03-06T11:46:48;11.30;99.90
7216;DHT22;3649;48.798;9.798;2024-03-06T11:49:20;11.40;99.90
7216;DHT22;3649;48.798;9.798;2024-03-06T11:51:53;11.50;99.90
7216;DHT22;3649;48.798;9.798;2024-03-06T11:54:22;11.50;99.90
7216;DHT22;3649;48.798;9.798;2024-03-06T11:56:58;11.50;99.90
7216;DHT22;3649;48.798;9.798;2024-03-06T11:59:30;11.50;99.90
7216;DHT22;3649;48.798;9.798;2024-03-06T12:02:03;11.50;99.90
7216;DHT22;3649;48.798;9.798;2024-03-06T12:04:35;11.60;99.90
7216;DHT22;3649;48.798;9.798;2024-03-06T12:07:06;11.50;99.90
7216;DHT22;3649;48.798;9.798;2024-03-06T12:09:37;11.30;99.90
7216;DHT22;3649;48.798;9.798;2024-03-06T12:12:09;11.40;99.90
7216;DHT22;3649;48.798;9.798;2024-03-06T12:14:37;11.30;99.90
7216;DHT22;3649;48.798;9.798;2024-03-06T12:17:11;11.30;99.90
7216;DHT22;3649;48.798;9.798;2024-03-06T12:19:42;11.30;99.90
7216;DHT22;3649;48.798;9.798;2024-03-06T12:22:11;11.30;99.90
7216;DHT22;3649;48.798;9.798;2024-03-06T12:24:38;11.30;99.90
7216;DHT22;3649;48.798;9.798;2024-03-06T12:27:07;11.30;99.90
7216;DHT22;3649;48.798;9.798;2024-03-06T12:29:35;11.70;99.90
7216;DHT22;3649;48.798;9.798;2024-03-06T12:32:03;11.40;99.90
7216;DHT22;3649;48.798;9.798;2024-03-06T12:34:30;11.50;99.90
7216;DHT22;3649;48.798;9.798;2024-03-06T12:37:10;11.50;99.90
7216;DHT22;3649;48.798;9.798;2024-03-06T12:39:38;11.50;99.90
7216;DHT22;3649;48.798;9.798;2024-03-06T12:42:09;11.80;99.90
7216;DHT22;3649;48.798;9.798;2024-03-06T12:44:36;11.40;99.90
7216;DHT22;3649;48.798;9.798;2024-03-06T12:47:04;11.40;99.90
7216;DHT22;3649;48.798;9.798;2024-03-06T12:49:31;11.40;99.90
7216;DHT22;3649;48.798;9.798;2024-03-06T12:51:59;11.40;99.90
7216;DHT22;3649;48.798;9.798;2024-03-06T12:54:31;11.30;99.90
7216;DHT22;3649;48.798;9.798;2024-03-06T12:56:58;11.30;99.90
7216;DHT22;3649;48.798;9.798;2024-03-06T12:59:24;11.30;99.90
7216;DHT22;3649;48.798;9.798;2024-03-06T13:01:52;11.40;99.90
7216;DHT22;3649;48.798;9.798;2024-03-06T13:04:19;11.40;99.90
7216;DHT22;3649;48.798;9.798;2024-03-06T13:06:46;11.40;99.90
7216;DHT22;3649;48.798;9.798;2024-03-06T13:09:13;11.40;99.90
7216;DHT22;3649;48.798;9.798;2024-03-06T13:11:41;11.50;99.90
7216;DHT22;3649;48.798;9.798;2024-03-06T13:14:09;11.60;99.90
7216;DHT22;3649;48.798;9.798;2024-03-06T13:16:39;11.60;99.90
7216;DHT22;3649;48.798;9.798;2024-03-06T13:19:06;11.50;99.90
7216;DHT22;3649;48.798;9.798;2024-03-06T13:21:34;11.50;99.90
7216;DHT22;3649;48.798;9.798;2024-03-06T13:24:01;11.50;99.90
7216;DHT22;3649;48.798;9.798;2024-03-06T13:26:29;11.50;99.90
7216;DHT22;3649;48.798;9.798;2024-03-06T13:28:56;11.50;99.90
7216;DHT22;3649;48.798;9.798;2024-03-06T13:31:23;11.50;99.90
7216;DHT22;3649;48.798;9.798;2024-03-06T13:33:53;11.50;99.90
7216;DHT22;3649;48.798;9.798;2024-03-06T13:36:20;11.50;99.90
7216;DHT22;3649;48.798;9.798;2024-03-06T13:38:49;11.50;99.90
7216;DHT22;3649;48.798;9.798;2024-03-06T13:41:16;11.50;99.90
7216;DHT22;3649;48.798;9.798;2024-03-06T13:43:43;12.60;99.90
7216;DHT22;3649;48.798;9.798;2024-03-06T13:46:10;11.50;99.90
7216;DHT22;3649;48.798;9.798;2024-03-06T13:48:37;11.60;99.90
7216;DHT22;3649;48.798;9.798;2024-03-06T13:51:05;11.60;99.90
7216;DHT22;3649;48.798;9.798;2024-03-06T13:53:32;11.60;99.90
7216;DHT22;3649;48.798;9.798;2024-03-06T13:55:59;11.50;99.90
7216;DHT22;3649;48.798;9.798;2024-03-06T13:58:26;11.50;99.90
7216;DHT22;3649;48.798;9.798;2024-03-06T14:00:53;11.70;99.90
7216;DHT22;3649;48.798;9.798;2024-03-06T14:03:20;11.60;99.90
7216;DHT22;3649;48.798;9.798;2024-03-06T14:05:48;11.60;99.90
7216;DHT22;3649;48.798;9.798;2024-03-06T14:08:15;11.60;99.90
7216;DHT22;3649;48.798;9.798;2024-03-06T14:10:43;11.70;99.90
7216;DHT22;3649;48.798;9.798;2024-03-06T14:13:12;11.70;99.90
7216;DHT22;3649;48.798;9.798;2024-03-06T14:15:39;11.60;99.90
7216;DHT22;3649;48.798;9.798;2024-03-06T14:18:06;11.60;99.90
7216;DHT22;3649;48.798;9.798;2024-03-06T14:20:34;11.60;99.90
7216;DHT22;3649;48.798;9.798;2024-03-06T14:23:00;11.60;99.90
7216;DHT22;3649;48.798;9.798;2024-03-06T14:25:27;11.60;99.90
7216;DHT22;3649;48.798;9.798;2024-03-06T14:27:56;11.60;99.90
7216;DHT22;3649;48.798;9.798;2024-03-06T14:30:22;11.60;99.90
7216;DHT22;3649;48.798;9.798;2024-03-06T14:32:49;12.00;99.90
7216;DHT22;3649;48.798;9.798;2024-03-06T14:35:16;11.70;99.90
7216;DHT22;3649;48.798;9.798;2024-03-06T14:37:44;11.70;99.90
7216;DHT22;3649;48.798;9.798;2024-03-06T14:40:11;11.70;99.90
7216;DHT22;3649;48.798;9.798;2024-03-06T14:42:38;11.70;99.90
7216;DHT22;3649;48.798;9.798;2024-03-06T14:45:05;11.80;99.90
7216;DHT22;3649;48.798;9.798;2024-03-06T14:47:32;11.70;99.90
7216;DHT22;3649;48.798;9.798;2024-03-06T14:49:59;11.80;99.90
7216;DHT22;3649;48.798;9.798;2024-03-06T14:52:26;11.80;99.90
7216;DHT22;3649;48.798;9.798;2024-03-06T14:54:54;13.10;99.90
7216;DHT22;3649;48.798;9.798;2024-03-06T14:57:21;11.80;99.90
7216;DHT22;3649;48.798;9.798;2024-03-06T14:59:50;11.90;99.90
7216;DHT22;3649;48.798;9.798;2024-03-06T15:02:17;11.90;99.90
7216;DHT22;3649;48.798;9.798;2024-03-06T15:04:44;11.90;99.90
7216;DHT22;3649;48.798;9.798;2024-03-06T15:07:14;12.00;99.90
7216;DHT22;3649;48.798;9.798;2024-03-06T15:09:41;13.00;99.90
7216;DHT22;3649;48.798;9.798;2024-03-06T15:12:08;12.00;99.90
7216;DHT22;3649;48.798;9.798;2024-03-06T15:14:35;12.10;99.90
7216;DHT22;3649;48.798;9.798;2024-03-06T15:17:12;13.70;99.90
7216;DHT22;3649;48.798;9.798;2024-03-06T15:19:39;12.20;99.90
7216;DHT22;3649;48.798;9.798;2024-03-06T15:22:07;13.30;99.90
7216;DHT22;3649;48.798;9.798;2024-03-06T15:24:35;12.10;99.90
7216;DHT22;3649;48.798;9.798;2024-03-06T15:27:01;12.20;99.90
7216;DHT22;3649;48.798;9.798;2024-03-06T15:29:28;12.20;99.90
7216;DHT22;3649;48.798;9.798;2024-03-06T15:31:55;12.10;99.90
7216;DHT22;3649;48.798;9.798;2024-03-06T15:34:22;12.10;99.90
7216;DHT22;3649;48.798;9.798;2024-03-06T15:36:50;12.00;99.90
7216;DHT22;3649;48.798;9.798;2024-03-06T15:39:23;12.10;99.90
7216;DHT22;3649;48.798;9.798;2024-03-06T15:41:50;12.00;99.90
7216;DHT22;3649;48.798;9.798;2024-03-06T15:44:17;12.00;99.90
7216;DHT22;3649;48.798;9.798;2024-03-06T15:46:44;12.00;99.90
7216;DHT22;3649;48.798;9.798;2024-03-06T15:49:25;12.00;99.90
7216;DHT22;3649;48.798;9.798;2024-03-06T15:51:52;12.00;99.90
7216;DHT22;3649;48.798;9.798;2024-03-06T15:54:22;12.00;99.90
7216;DHT22;3649;48.798;9.798;2024-03-06T15:56:49;12.10;99.90
7216;DHT22;3649;48.798;9.798;2024-03-06T15:59:16;12.10;99.90
7216;DHT22;3649;48.798;9.798;2024-03-06T16:01:43;12.10;99.90
7216;DHT22;3649;48.798;9.798;2024-03-06T16:04:11;12.30;99.90
7216;DHT22;3649;48.798;9.798;2024-03-06T16:06:38;12.10;99.90
7216;DHT22;3649;48.798;9.798;2024-03-06T16:09:08;12.50;99.90
7216;DHT22;3649;48.798;9.798;2024-03-06T16:11:41;12.10;99.90
7216;DHT22;3649;48.798;9.798;2024-03-06T16:14:08;12.10;99.90
7216;DHT22;3649;48.798;9.798;2024-03-06T16:16:35;12.10;99.90
7216;DHT22;3649;48.798;9.798;2024-03-06T16:19:02;12.10;99.90
7216;DHT22;3649;48.798;9.798;2024-03-06T16:21:30;12.10;99.90
7216;DHT22;3649;48.798;9.798;2024-03-06T16:23:57;12.10;99.90